Terminal Aerodrome Forecast
Issued by NWS Charleston, WV

Current Version | Previous Version | Graphics & Text | Print | Product List | Glossary On
Versions: 1 2 3 4 5 6 7 8 9 10 11 12 13 14 15 16 17 18 19 20 21 22 23
000
FTUS41 KRLX 282300
TAFBKW
TAF
KBKW 282339Z 2900/2924 23008G18KT P6SM SCT050
     FM290200 24005KT 5SM -SHRA BKN035
      TEMPO 2902/2904 28008G15KT 2SM SHRA BKN020
     FM290400 28007KT 4SM -SHRA BR OVC018
      TEMPO 2904/2907 2SM BR BKN010
     FM291000 30006KT 6SM BR OVC025
     FM291300 30005KT P6SM OVC035
     FM291600 28009G15KT P6SM SCT050
     FM292300 30008KT P6SM SCT050=

USA.gov is the U.S. government's official web portal to all federal, state and local government web resources and services.